Time;durP1;ratioP1;P1;durP2;ratioP2;P2;SDS_P1;SDS_P2;PMS_P1;PMS_P2;Temp;Humidity;BMP_temperature;BMP_pressure;BME280_temperature;BME280_humidity;BME280_pressure;Samples;Min_cycle;Max_cycle;Signal;HPM_P1;HPM_P2
2023/07/14 00:01:46;;;;;;;19.50;6.80;;;;;;;23.51;62.91;98921.45;67744;1278;1016937;-66
2023/07/14 00:04:49;;;;;;;19.60;6.50;;;;;;;23.78;61.79;98919.13;67753;1278;1016120;-65
2023/07/14 00:07:51;;;;;;;;;;;;;;;23.79;61.89;98920.27;67766;1278;1016474;-66
2023/07/14 00:10:55;;;;;;;19.40;6.60;;;;;;;23.65;63.41;98923.09;67783;1278;1016322;-65
2023/07/14 00:13:57;;;;;;;21.40;7.30;;;;;;;23.58;63.28;98923.02;67747;1278;1016440;-66
2023/07/14 00:17:00;;;;;;;21.30;7.10;;;;;;;23.67;63.19;98929.70;67824;1278;1016443;-66
2023/07/14 00:20:04;;;;;;;21.30;7.30;;;;;;;23.76;62.22;98927.98;67790;1278;1016172;-66
2023/07/14 00:23:07;;;;;;;21.30;7.60;;;;;;;23.76;62.20;98932.10;67726;1278;1016570;-66
2023/07/14 00:26:09;;;;;;;;;;;;;;;23.57;63.79;98931.15;67756;1278;1016431;-66
2023/07/14 00:29:12;;;;;;;22.10;6.80;;;;;;;23.54;62.80;98927.75;67774;1278;1016332;-67
2023/07/14 00:32:14;;;;;;;;;;;;;;;23.64;60.96;98927.21;67779;1278;1016112;-66
2023/07/14 00:35:16;;;;;;;19.90;7.10;;;;;;;23.68;60.96;98927.66;67786;1278;1016806;-65
2023/07/14 00:38:19;;;;;;;;;;;;;;;23.92;60.03;98932.64;67783;1278;1015937;-66
2023/07/14 00:41:21;;;;;;;19.80;6.70;;;;;;;23.89;60.01;98926.33;67744;1278;1018928;-66
2023/07/14 00:44:24;;;;;;;;;;;;;;;23.77;60.70;98925.63;67768;1278;1016408;-66
2023/07/14 00:47:26;;;;;;;21.70;6.80;;;;;;;23.75;61.00;98926.61;67803;1278;1016477;-65
2023/07/14 00:50:29;;;;;;;;;;;;;;;23.68;61.34;98922.53;67764;1278;1016436;-65
2023/07/14 00:53:31;;;;;;;;;;;;;;;23.77;61.03;98923.05;67757;1278;1016487;-66
2023/07/14 00:56:34;;;;;;;21.60;7.00;;;;;;;23.78;60.82;98924.81;67792;1278;1016515;-65
2023/07/14 00:59:36;;;;;;;;;;;;;;;23.67;61.35;98926.05;67822;1278;1016248;-66
2023/07/14 01:02:39;;;;;;;19.70;7.10;;;;;;;23.74;61.12;98926.55;67785;1278;1016445;-65
2023/07/14 01:05:41;;;;;;;;;;;;;;;23.67;61.09;98928.09;67735;1278;1016451;-64
2023/07/14 01:08:44;;;;;;;21.30;6.90;;;;;;;23.71;61.32;98931.35;67736;1278;1016203;-66
2023/07/14 01:11:46;;;;;;;23.20;6.80;;;;;;;23.55;61.57;98932.61;67779;1278;1016359;-65
2023/07/14 01:14:49;;;;;;;;;;;;;;;23.74;60.62;98935.09;67789;1278;1016504;-66
2023/07/14 01:17:51;;;;;;;20.00;7.50;;;;;;;23.66;60.74;98938.91;67727;1278;1016382;-65
2023/07/14 01:20:54;;;;;;;22.30;7.40;;;;;;;23.52;61.62;98945.52;67742;1278;1016331;-66
2023/07/14 01:23:56;;;;;;;;;;;;;;;23.64;61.04;98950.53;67757;1278;1015731;-66
2023/07/14 01:26:59;;;;;;;21.90;7.50;;;;;;;23.80;60.79;98950.92;67783;1278;1016371;-68
2023/07/14 01:30:01;;;;;;;;;;;;;;;23.68;61.01;98954.31;67796;1278;1016279;-66
2023/07/14 01:33:04;;;;;;;21.90;6.90;;;;;;;23.70;60.87;98962.55;67774;1278;1016266;-66
2023/07/14 01:36:07;;;;;;;19.00;6.60;;;;;;;23.85;59.98;98968.15;67814;1278;1016397;-66
2023/07/14 01:39:09;;;;;;;21.10;7.00;;;;;;;23.93;59.86;98971.33;67749;1278;1016626;-66
2023/07/14 01:42:12;;;;;;;;;;;;;;;23.99;59.31;98977.13;67777;1278;1018839;-66
2023/07/14 01:45:14;;;;;;;18.80;6.40;;;;;;;24.18;58.04;98979.08;67792;1278;1016277;-65
2023/07/14 01:48:17;;;;;;;;;;;;;;;24.17;58.03;98982.49;67792;1278;1016498;-66
2023/07/14 01:51:19;;;;;;;;;;;;;;;24.27;57.66;98983.01;67774;1278;1016191;-66
2023/07/14 01:54:22;;;;;;;;;;;;;;;24.29;57.41;98984.40;67761;1278;1016543;-66
2023/07/14 01:57:24;;;;;;;17.90;6.60;;;;;;;24.29;57.55;98987.41;67793;1278;1016447;-66
2023/07/14 02:00:27;;;;;;;21.00;6.60;;;;;;;24.35;57.32;98988.54;67830;1278;1016464;-65
2023/07/14 02:03:29;;;;;;;21.30;6.70;;;;;;;24.06;58.40;98994.10;67802;1278;1016461;-66
2023/07/14 02:06:31;;;;;;;;;;;;;;;23.18;61.94;98989.77;67766;1278;1016498;-66
2023/07/14 02:09:34;;;;;;;20.30;6.90;;;;;;;22.46;65.98;98991.02;67758;1278;1016109;-66
2023/07/14 02:12:36;;;;;;;18.20;6.40;;;;;;;22.82;63.96;98988.71;67794;1278;1016067;-66
2023/07/14 02:15:39;;;;;;;;;;;;;;;22.98;63.25;98989.98;67811;1278;1016484;-66
2023/07/14 02:18:41;;;;;;;19.10;6.60;;;;;;;22.88;64.04;98993.02;67823;1278;1018692;-66
2023/07/14 02:21:44;;;;;;;19.50;6.70;;;;;;;23.10;62.92;98997.42;67749;1278;1016300;-66
2023/07/14 02:24:46;;;;;;;;;;;;;;;22.93;63.32;99006.56;67784;1278;1016448;-67
2023/07/14 02:27:49;;;;;;;21.00;6.80;;;;;;;22.81;64.09;99008.08;67795;1278;1015874;-66
2023/07/14 02:30:51;;;;;;;;;;;;;;;22.70;63.97;99011.36;67818;1278;1016510;-66
2023/07/14 02:33:54;;;;;;;54.50;8.90;;;;;;;22.28;66.24;99014.94;67766;1278;1016704;-66
2023/07/14 02:36:56;;;;;;;;;;;;;;;22.40;65.39;99022.09;67798;1278;1016388;-66
2023/07/14 02:39:59;;;;;;;22.40;7.00;;;;;;;22.81;62.88;99019.27;67797;1278;1016447;-66
2023/07/14 02:43:02;;;;;;;22.20;7.20;;;;;;;22.73;62.99;99021.95;67766;1269;1016114;-67
2023/07/14 02:46:04;;;;;;;;;;;;;;;22.85;62.46;99023.85;67804;1278;1016381;-65
2023/07/14 02:49:06;;;;;;;20.30;7.00;;;;;;;22.79;62.79;99032.17;67778;1278;1016288;-66
2023/07/14 02:52:09;;;;;;;;;;;;;;;21.65;68.95;99036.68;67797;1278;1016407;-67
2023/07/14 02:55:11;;;;;;;19.30;6.80;;;;;;;21.54;70.00;99039.76;67831;1278;1016480;-64
2023/07/14 02:58:14;;;;;;;;;;;;;;;21.56;70.65;99040.87;67814;1278;1016445;-65
2023/07/14 03:01:16;;;;;;;23.00;7.20;;;;;;;21.41;71.97;99045.61;67751;1278;1016494;-66
2023/07/14 03:04:18;;;;;;;;;;;;;;;21.38;72.50;99049.95;67800;1278;1016485;-67
2023/07/14 03:07:21;;;;;;;21.20;6.90;;;;;;;21.41;73.48;99053.38;67809;1278;1016406;-65
2023/07/14 03:10:23;;;;;;;19.50;6.50;;;;;;;21.32;74.22;99057.49;67812;1278;1016392;-67
2023/07/14 03:13:26;;;;;;;;;;;;;;;21.50;73.29;99056.23;67832;1278;1016259;-69
2023/07/14 03:16:28;;;;;;;19.50;7.10;;;;;;;21.48;73.60;99056.15;67754;1278;1016263;-66
2023/07/14 04:34:49;;;;;;;18.10;6.10;;;;;;;20.47;100.00;99108.42;132768;1296;557646;-62
2023/07/14 04:37:52;;;;;;;17.60;5.90;;;;;;;22.13;100.00;99106.63;134772;1285;89782;-62
2023/07/14 04:40:55;;;;;;;20.20;6.90;;;;;;;22.03;100.00;99108.58;134893;1282;22566;-63
2023/07/14 04:43:57;;;;;;;19.20;6.60;;;;;;;22.35;100.00;99113.61;134841;1282;22528;-61
2023/07/14 04:47:00;;;;;;;18.70;6.50;;;;;;;22.25;100.00;99116.30;134871;1282;22539;-61
2023/07/14 04:50:02;;;;;;;17.40;6.10;;;;;;;22.63;100.00;99114.79;134851;1286;22582;-61
2023/07/14 04:53:06;;;;;;;19.80;6.30;;;;;;;22.71;100.00;99118.52;134848;1279;22567;-61
2023/07/14 04:56:08;;;;;;;21.30;6.60;;;;;;;22.92;100.00;99121.99;134881;1282;22563;-61
2023/07/14 04:59:11;;;;;;;21.30;6.60;;;;;;;23.23;100.00;99118.95;134875;1282;22546;-62
2023/07/14 05:02:14;;;;;;;17.60;6.30;;;;;;;23.61;100.00;99121.84;134848;1285;22537;-62
2023/07/14 05:05:16;;;;;;;17.60;5.80;;;;;;;23.49;100.00;99123.41;134821;1287;22546;-62
2023/07/14 05:08:18;;;;;;;21.00;6.50;;;;;;;23.67;100.00;99123.51;134848;1287;22529;-63
2023/07/14 05:11:21;;;;;;;19.80;6.30;;;;;;;23.99;100.00;99124.95;134861;1287;22589;-63
2023/07/14 05:14:24;;;;;;;20.30;6.00;;;;;;;23.92;100.00;99126.48;134868;1287;22536;-62
2023/07/14 05:17:27;;;;;;;22.50;6.90;;;;;;;24.05;100.00;99126.42;134836;1287;22557;-62
2023/07/14 05:20:30;;;;;;;20.30;6.10;;;;;;;24.04;100.00;99125.84;135530;1279;22561;-63
2023/07/14 05:23:32;;;;;;;18.40;6.00;;;;;;;24.26;100.00;99130.70;135623;1279;22537;-63
2023/07/14 05:26:35;;;;;;;16.60;5.10;;;;;;;24.18;100.00;99137.81;135608;1279;24371;-63
2023/07/14 05:29:38;;;;;;;17.60;5.50;;;;;;;23.87;100.00;99138.80;135631;1279;25210;-63
2023/07/14 05:32:40;;;;;;;18.40;5.90;;;;;;;23.54;100.00;99141.33;135588;1279;22551;-63
2023/07/14 05:35:43;;;;;;;18.40;6.10;;;;;;;23.77;100.00;99137.92;135554;1280;22639;-63
2023/07/14 05:38:46;;;;;;;17.50;5.40;;;;;;;23.86;100.00;99141.82;135595;1279;22531;-62
2023/07/14 05:41:49;;;;;;;18.50;5.70;;;;;;;24.21;100.00;99138.23;135604;1279;22602;-63
2023/07/14 05:44:51;;;;;;;16.60;5.00;;;;;;;24.37;100.00;99135.84;135653;1263;22530;-63
2023/07/14 05:47:54;;;;;;;15.60;5.30;;;;;;;24.24;100.00;99138.49;135608;1279;22555;-63
2023/07/14 05:50:56;;;;;;;16.10;5.50;;;;;;;24.47;100.00;99135.29;135560;1279;22548;-63
2023/07/14 05:53:59;;;;;;;17.30;6.00;;;;;;;24.81;100.00;99136.96;135557;1279;22530;-63
2023/07/14 05:57:01;;;;;;;17.70;6.00;;;;;;;24.84;100.00;99131.80;135624;1279;22571;-63
2023/07/14 06:00:05;;;;;;;19.90;5.90;;;;;;;24.96;100.00;99132.20;135606;1279;22547;-63
2023/07/14 06:03:08;;;;;;;18.20;5.50;;;;;;;25.18;100.00;99129.94;135559;1279;23294;-63
2023/07/14 06:06:11;;;;;;;18.50;5.20;;;;;;;25.36;100.00;99134.83;135580;1279;22551;-62
2023/07/14 06:09:13;;;;;;;14.50;4.70;;;;;;;25.76;100.00;99136.11;136047;1279;22883;-63
2023/07/14 06:12:15;;;;;;;18.00;5.50;;;;;;;25.82;100.00;99133.80;136294;1263;26476;-62
2023/07/14 06:15:18;;;;;;;16.30;5.20;;;;;;;25.68;100.00;99135.07;135356;1279;22635;-62
2023/07/14 06:18:20;;;;;;;16.50;5.10;;;;;;;25.75;100.00;99129.20;135401;1279;22583;-62
2023/07/14 06:21:23;;;;;;;17.90;5.60;;;;;;;25.72;100.00;99127.46;135450;1279;22646;-63
2023/07/14 06:24:25;;;;;;;14.50;5.20;;;;;;;25.83;100.00;99127.20;135558;1279;25392;-62
2023/07/14 06:27:33;;;;;;;17.50;5.50;;;;;;;26.26;100.00;99129.91;135544;1279;22633;-62
2023/07/14 06:30:35;;;;;;;17.80;5.10;;;;;;;26.23;100.00;99134.55;135574;1279;22576;-63
2023/07/14 06:33:38;;;;;;;15.40;4.80;;;;;;;26.42;100.00;99138.70;135575;1279;22655;-63
2023/07/14 06:36:40;;;;;;;15.10;5.40;;;;;;;26.52;100.00;99140.48;135582;1279;22549;-63
2023/07/14 06:39:43;;;;;;;19.10;5.20;;;;;;;26.61;100.00;99141.23;135564;1279;22541;-63
2023/07/14 06:42:45;;;;;;;17.00;5.00;;;;;;;26.61;100.00;99140.08;135572;1279;22526;-63
2023/07/14 06:45:48;;;;;;;18.40;5.40;;;;;;;26.69;100.00;99143.36;135589;1279;25401;-63
2023/07/14 06:48:50;;;;;;;18.60;4.90;;;;;;;26.63;100.00;99149.02;135597;1279;22542;-63
2023/07/14 06:51:53;;;;;;;19.80;5.20;;;;;;;26.70;100.00;99150.04;135605;1264;22534;-63
2023/07/14 06:54:57;;;;;;;17.60;5.10;;;;;;;26.89;100.00;99144.29;135612;1279;22524;-63
2023/07/14 06:57:59;;;;;;;15.90;5.10;;;;;;;26.97;100.00;99141.83;135630;1279;25347;-63
2023/07/14 07:01:02;;;;;;;18.40;5.30;;;;;;;27.05;100.00;99138.16;135596;1279;22513;-63
2023/07/14 07:04:05;;;;;;;14.20;4.70;;;;;;;27.06;100.00;99147.98;135573;1279;22514;-63
2023/07/14 07:07:07;;;;;;;19.90;5.30;;;;;;;27.25;100.00;99148.32;135576;1279;23002;-63
2023/07/14 07:10:10;;;;;;;14.60;4.70;;;;;;;27.34;100.00;99149.44;135585;1279;22549;-64
2023/07/14 07:13:12;;;;;;;16.80;4.90;;;;;;;27.65;100.00;99148.86;135612;1279;22522;-63
2023/07/14 07:16:14;;;;;;;15.80;4.60;;;;;;;27.89;100.00;99151.59;135609;1279;25446;-63
2023/07/14 07:19:17;;;;;;;18.20;5.00;;;;;;;28.49;100.00;99147.86;135574;1279;22540;-63
2023/07/14 07:22:19;;;;;;;15.70;4.60;;;;;;;28.04;100.00;99148.75;135517;1279;22562;-64
2023/07/14 07:25:21;;;;;;;15.60;4.60;;;;;;;27.99;100.00;99148.10;135605;1279;22554;-64
2023/07/14 07:28:24;;;;;;;18.10;4.70;;;;;;;28.26;100.00;99144.64;135535;1279;22558;-64
2023/07/14 07:31:28;;;;;;;14.70;4.80;;;;;;;28.30;100.00;99139.67;135599;1279;22571;-64
2023/07/14 07:34:30;;;;;;;17.20;4.70;;;;;;;28.45;100.00;99140.73;135568;1279;24317;-64
2023/07/14 07:37:33;;;;;;;19.10;5.10;;;;;;;28.71;100.00;99138.66;135572;1279;24369;-64
2023/07/14 07:40:35;;;;;;;15.10;4.40;;;;;;;28.78;100.00;99141.20;135576;1279;22589;-64
2023/07/14 07:43:38;;;;;;;15.10;4.40;;;;;;;28.81;100.00;99143.14;135559;1279;22543;-64
2023/07/14 07:46:40;;;;;;;15.50;4.10;;;;;;;29.24;100.00;99142.28;135586;1279;25268;-64
2023/07/14 07:49:43;;;;;;;14.20;4.20;;;;;;;28.82;100.00;99145.96;135630;1279;22517;-64
2023/07/14 07:52:45;;;;;;;14.90;4.20;;;;;;;29.07;100.00;99144.51;135594;1279;22533;-64
2023/07/14 07:55:48;;;;;;;11.80;3.80;;;;;;;29.28;100.00;99145.58;135585;1279;22519;-64
2023/07/14 07:58:50;;;;;;;15.20;4.30;;;;;;;29.24;100.00;99149.82;135575;1279;25472;-64
2023/07/14 08:01:53;;;;;;;13.10;4.10;;;;;;;29.15;100.00;99147.95;135591;1279;24050;-64
2023/07/14 08:04:55;;;;;;;14.40;4.00;;;;;;;29.34;100.00;99153.27;135551;1279;22557;-64
2023/07/14 08:07:58;;;;;;;12.20;3.80;;;;;;;29.63;99.65;99156.17;135578;1279;22633;-64
2023/07/14 08:11:00;;;;;;;13.30;3.90;;;;;;;29.72;99.15;99161.15;135626;1279;23880;-64
2023/07/14 08:14:03;;;;;;;15.40;4.20;;;;;;;29.71;95.71;99165.32;135564;1263;22526;-64
2023/07/14 08:17:05;;;;;;;13.70;3.80;;;;;;;30.08;92.85;99160.97;135606;1279;22520;-64
2023/07/14 08:20:08;;;;;;;12.60;3.70;;;;;;;30.42;92.44;99166.48;135595;1279;22532;-64
2023/07/14 08:23:11;;;;;;;15.60;4.30;;;;;;;30.42;80.09;99175.56;135591;1279;24269;-64
2023/07/14 08:26:13;;;;;;;13.10;3.70;;;;;;;30.37;74.83;99171.73;135609;1279;25306;-64
2023/07/14 08:29:16;;;;;;;15.10;4.00;;;;;;;30.58;76.39;99164.46;135594;1279;22531;-64
2023/07/14 08:32:18;;;;;;;11.30;3.50;;;;;;;30.91;73.61;99168.08;135571;1279;22557;-64
2023/07/14 08:35:21;;;;;;;13.30;3.60;;;;;;;30.96;71.64;99168.23;135593;1279;22533;-64
2023/07/14 08:38:23;;;;;;;15.30;3.70;;;;;;;30.74;66.38;99167.02;135569;1279;25433;-64
2023/07/14 08:41:25;;;;;;;16.50;3.80;;;;;;;30.60;65.30;99171.38;135571;1279;24174;-65
2023/07/14 08:44:28;;;;;;;12.10;3.60;;;;;;;30.60;66.48;99175.13;135555;1279;22561;-64
2023/07/14 08:47:31;;;;;;;13.60;4.00;;;;;;;30.41;65.43;99173.52;135575;1279;22540;-64
2023/07/14 08:50:33;;;;;;;11.90;3.90;;;;;;;30.39;66.49;99172.32;135577;1279;22562;-64
2023/07/14 08:53:35;;;;;;;12.20;3.60;;;;;;;30.70;66.61;99166.45;135530;1279;22534;-64
2023/07/14 08:56:38;;;;;;;12.20;3.80;;;;;;;31.12;64.02;99167.95;135614;1263;23004;-64
2023/07/14 08:59:40;;;;;;;10.80;3.40;;;;;;;31.41;62.98;99162.08;135647;1279;22533;-64
2023/07/14 09:02:43;;;;;;;12.00;3.40;;;;;;;31.35;60.92;99164.13;135617;1263;22523;-65
2023/07/14 09:05:45;;;;;;;11.40;3.40;;;;;;;31.54;55.17;99166.60;135574;1279;22542;-64
2023/07/14 09:08:48;;;;;;;12.90;3.50;;;;;;;31.02;56.00;99162.69;135581;1279;24050;-64
2023/07/14 09:11:50;;;;;;;11.60;3.50;;;;;;;30.79;57.17;99164.16;135619;1280;24500;-64
2023/07/14 09:14:52;;;;;;;13.50;3.50;;;;;;;31.40;56.82;99160.71;135624;1279;22543;-64
2023/07/14 09:17:55;;;;;;;11.20;3.40;;;;;;;31.26;54.77;99163.95;135588;1280;22606;-65
2023/07/14 09:20:58;;;;;;;10.50;3.20;;;;;;;31.11;54.62;99162.09;135593;1279;25393;-65
2023/07/14 09:24:00;;;;;;;12.20;3.40;;;;;;;31.11;55.00;99158.55;135576;1279;22550;-64
2023/07/14 09:27:03;;;;;;;14.80;3.60;;;;;;;31.30;53.62;99162.66;135565;1280;22526;-64
2023/07/14 09:30:08;;;;;;;14.50;3.80;;;;;;;30.96;53.80;99161.55;135517;1279;22552;-64
2023/07/14 09:33:10;;;;;;;13.70;3.80;;;;;;;31.52;55.70;99152.10;135540;1279;24886;-65
2023/07/14 09:36:12;;;;;;;12.40;3.40;;;;;;;31.64;51.21;99155.26;135589;1280;23245;-65
2023/07/14 09:39:15;;;;;;;11.40;3.50;;;;;;;31.83;49.89;99155.46;135579;1279;22858;-65
2023/07/14 09:42:18;;;;;;;10.30;3.10;;;;;;;31.63;45.73;99158.31;135547;1280;22530;-65
2023/07/14 09:45:20;;;;;;;11.80;3.50;;;;;;;31.88;44.45;99158.11;135570;1279;22534;-64
2023/07/14 09:48:23;;;;;;;13.10;3.30;;;;;;;31.85;40.42;99155.56;135561;1280;24196;-65
2023/07/14 09:51:25;;;;;;;11.30;3.40;;;;;;;32.08;40.61;99142.71;135590;1279;22530;-65
2023/07/14 09:54:28;;;;;;;13.70;3.10;;;;;;;32.19;40.52;99145.86;135578;1279;22549;-65
2023/07/14 09:57:30;;;;;;;9.80;2.90;;;;;;;32.34;39.70;99148.63;135557;1263;22530;-64
2023/07/14 10:00:32;;;;;;;11.50;3.50;;;;;;;32.63;38.34;99144.26;135611;1279;22543;-65
2023/07/14 10:03:35;;;;;;;13.30;3.30;;;;;;;32.90;37.58;99132.23;135581;1279;22636;-64
2023/07/14 10:06:37;;;;;;;10.20;3.30;;;;;;;33.54;36.98;99128.59;135593;1279;24379;-63
2023/07/14 10:09:39;;;;;;;11.30;3.10;;;;;;;34.14;36.97;99132.20;135609;1279;23144;-64
2023/07/14 10:12:42;;;;;;;9.80;2.70;;;;;;;34.11;35.40;99128.33;135910;1276;22530;-64
2023/07/14 10:15:45;;;;;;;12.80;3.30;;;;;;;33.84;35.34;99130.15;135905;1276;22523;-64
2023/07/14 10:18:49;;;;;;;13.10;3.10;;;;;;;34.11;35.82;99129.05;135898;1276;22541;-65
2023/07/14 10:21:51;;;;;;;11.10;3.00;;;;;;;34.19;34.74;99136.51;135913;1276;22530;-65
2023/07/14 10:24:54;;;;;;;10.40;3.10;;;;;;;34.34;34.73;99132.84;135944;1276;22545;-65
2023/07/14 10:27:56;;;;;;;12.00;3.20;;;;;;;34.55;34.02;99127.64;135912;1276;22550;-65
2023/07/14 10:30:59;;;;;;;12.40;3.00;;;;;;;34.39;34.04;99135.02;135949;1276;22553;-65
2023/07/14 10:34:01;;;;;;;11.90;2.70;;;;;;;34.40;32.67;99136.66;135921;1256;23813;-65
2023/07/14 10:37:04;;;;;;;12.10;2.90;;;;;;;34.53;31.75;99128.42;135940;1276;22523;-65
2023/07/14 10:40:10;;;;;;;11.20;2.40;;;;;;;34.69;32.42;99130.85;135926;1272;24257;-65
2023/07/14 10:43:12;;;;;;;8.60;2.50;;;;;;;34.61;30.57;99133.41;135889;1276;22538;-64
2023/07/14 10:46:15;;;;;;;10.40;2.50;;;;;;;34.70;30.43;99123.90;135926;1276;24464;-65
2023/07/14 10:49:20;;;;;;;6.60;2.30;;;;;;;34.74;29.50;99121.73;135939;1276;25465;-64
2023/07/14 10:52:23;;;;;;;12.70;2.90;;;;;;;34.58;29.85;99118.93;135910;1276;22804;-64
2023/07/14 10:55:25;;;;;;;10.50;2.70;;;;;;;34.64;31.25;99114.31;135919;1276;22544;-65
2023/07/14 10:58:28;;;;;;;8.00;2.60;;;;;;;34.78;30.33;99126.16;135920;1276;22540;-65
2023/07/14 11:01:30;;;;;;;9.30;2.50;;;;;;;34.39;28.61;99129.70;135932;1276;22550;-64
2023/07/14 11:04:33;;;;;;;12.70;2.60;;;;;;;34.40;28.60;99120.13;135935;1276;22534;-64
2023/07/14 11:07:35;;;;;;;9.70;2.40;;;;;;;34.20;28.40;99123.71;135916;1276;22518;-64
2023/07/14 11:10:37;;;;;;;7.40;2.40;;;;;;;34.45;28.37;99117.92;135891;1276;22549;-64
2023/07/14 11:13:40;;;;;;;12.90;2.90;;;;;;;34.10;28.64;99124.88;135919;1276;22552;-64
2023/07/14 11:16:42;;;;;;;10.70;2.80;;;;;;;33.74;30.18;99123.84;135917;1276;22534;-64
2023/07/14 11:19:45;;;;;;;6.80;2.20;;;;;;;33.74;28.48;99122.87;135901;1276;22544;-64
2023/07/14 11:22:47;;;;;;;6.20;2.10;;;;;;;33.60;28.24;99116.90;135909;1276;22527;-64
2023/07/14 11:25:49;;;;;;;8.10;2.60;;;;;;;33.70;28.49;99116.63;135861;1276;22546;-64
2023/07/14 11:28:52;;;;;;;9.50;2.30;;;;;;;33.85;28.31;99117.31;135932;1276;23063;-64
2023/07/14 11:31:54;;;;;;;9.00;2.40;;;;;;;34.03;27.89;99108.59;135920;1276;22527;-65
2023/07/14 11:34:57;;;;;;;6.90;2.50;;;;;;;34.45;28.03;99105.81;135869;1276;22637;-64
2023/07/14 11:37:59;;;;;;;8.30;2.20;;;;;;;34.95;27.18;99101.80;135923;1276;22537;-63
2023/07/14 11:41:02;;;;;;;6.10;2.30;;;;;;;34.96;27.19;99099.68;135946;1276;22639;-64
2023/07/14 11:44:05;;;;;;;7.70;2.30;;;;;;;35.08;27.17;99099.94;135888;1276;24225;-64
2023/07/14 11:47:08;;;;;;;8.10;2.20;;;;;;;35.36;27.32;99109.38;135919;1276;24046;-64
2023/07/14 11:50:10;;;;;;;6.70;2.10;;;;;;;35.30;25.69;99103.46;135847;1276;22566;-64
2023/07/14 11:53:12;;;;;;;11.60;2.50;;;;;;;34.98;25.99;99106.45;135924;1276;22524;-64
2023/07/14 11:56:15;;;;;;;7.40;2.20;;;;;;;34.79;27.03;99105.98;135917;1276;22531;-64
2023/07/14 11:59:17;;;;;;;10.20;3.00;;;;;;;34.55;26.59;99117.98;135908;1276;22531;-64
2023/07/14 12:02:20;;;;;;;7.20;2.20;;;;;;;33.82;27.11;99113.19;135896;1276;22550;-64
2023/07/14 12:05:23;;;;;;;5.90;2.20;;;;;;;33.47;27.28;99105.81;135910;1276;22530;-64
2023/07/14 12:08:26;;;;;;;7.10;2.30;;;;;;;33.08;27.70;99104.50;135900;1276;22561;-64
2023/07/14 12:11:28;;;;;;;6.30;2.20;;;;;;;32.79;28.50;99109.10;135911;1276;26497;-63
2023/07/14 12:14:31;;;;;;;10.20;2.50;;;;;;;32.75;28.12;99109.41;135938;1276;22526;-63
2023/07/14 12:17:33;;;;;;;7.60;2.20;;;;;;;32.56;28.58;99105.06;135886;1276;22537;-63
2023/07/14 12:20:37;;;;;;;14.70;3.20;;;;;;;32.23;30.10;99110.29;135893;1266;22557;-63
2023/07/14 12:23:39;;;;;;;14.50;4.20;;;;;;;32.31;31.49;99107.77;135926;1276;22530;-63
2023/07/14 12:26:42;;;;;;;16.20;4.00;;;;;;;32.34;31.26;99112.27;135942;1276;22562;-63
2023/07/14 12:29:44;;;;;;;12.20;3.20;;;;;;;32.63;30.91;99109.33;135931;1276;22550;-63
2023/07/14 12:32:47;;;;;;;9.90;2.80;;;;;;;32.60;30.59;99106.79;135929;1276;22551;-63
2023/07/14 12:35:49;;;;;;;5.90;2.40;;;;;;;33.07;29.92;99108.05;135908;1276;22538;-63
2023/07/14 12:38:51;;;;;;;14.00;3.30;;;;;;;33.85;29.31;99105.81;135887;1276;22538;-63
2023/07/14 12:41:54;;;;;;;10.00;2.40;;;;;;;34.27;27.38;99106.30;135937;1276;22523;-63
2023/07/14 12:44:56;;;;;;;14.30;2.50;;;;;;;34.62;27.43;99099.88;135931;1276;22636;-63
2023/07/14 12:47:59;;;;;;;7.10;2.20;;;;;;;35.33;27.24;99093.73;135936;1276;22543;-64
2023/07/14 12:51:01;;;;;;;8.20;2.70;;;;;;;35.80;26.57;99089.42;135906;1276;22527;-63
2023/07/14 12:54:04;;;;;;;10.40;2.30;;;;;;;36.12;26.52;99086.59;135888;1274;22576;-64
2023/07/14 12:57:06;;;;;;;11.50;2.50;;;;;;;36.03;26.38;99080.48;135906;1276;25453;-64
2023/07/14 13:00:08;;;;;;;10.70;2.60;;;;;;;36.43;26.04;99080.56;135946;1267;22527;-64
2023/07/14 13:03:11;;;;;;;8.70;2.30;;;;;;;36.23;24.67;99078.91;135940;1276;22518;-64
2023/07/14 13:06:16;;;;;;;12.00;2.50;;;;;;;36.18;25.70;99074.10;135960;1276;22528;-64
2023/07/14 13:09:19;;;;;;;12.30;2.40;;;;;;;36.57;25.57;99069.11;135911;1276;22538;-64
2023/07/14 13:12:21;;;;;;;6.70;2.40;;;;;;;36.39;24.38;99065.84;135896;1276;25220;-64
2023/07/14 13:15:24;;;;;;;8.10;2.50;;;;;;;36.49;24.97;99059.54;135967;1276;22558;-65
2023/07/14 13:18:26;;;;;;;10.00;2.30;;;;;;;37.09;25.83;99055.42;135898;1276;22536;-65
2023/07/14 13:21:29;;;;;;;9.40;2.10;;;;;;;37.47;25.03;99059.25;135945;1276;22561;-65
2023/07/14 13:24:32;;;;;;;6.20;2.10;;;;;;;37.47;23.92;99058.30;135950;1276;22542;-64
2023/07/14 13:27:34;;;;;;;9.80;2.30;;;;;;;36.85;25.05;99056.54;135921;1276;22557;-64
2023/07/14 13:30:37;;;;;;;10.80;2.70;;;;;;;37.03;25.03;99053.36;135951;1276;22538;-64
2023/07/14 13:33:39;;;;;;;9.80;2.30;;;;;;;37.01;24.86;99053.94;135933;1276;25343;-64
2023/07/14 13:36:42;;;;;;;11.00;2.20;;;;;;;36.81;24.67;99050.77;135921;1276;24727;-64
2023/07/14 13:39:44;;;;;;;7.60;2.50;;;;;;;36.37;25.23;99042.34;135958;1276;22530;-64
2023/07/14 13:42:48;;;;;;;10.10;2.50;;;;;;;36.33;25.15;99048.01;135920;1276;22542;-64
2023/07/14 13:45:50;;;;;;;10.50;2.60;;;;;;;35.73;25.57;99050.86;135878;1276;22531;-64
2023/07/14 13:48:53;;;;;;;6.00;2.00;;;;;;;34.87;26.69;99050.85;135916;1254;22546;-64
2023/07/14 13:51:55;;;;;;;7.90;2.50;;;;;;;35.32;27.18;99047.16;135942;1261;22531;-64
2023/07/14 13:54:58;;;;;;;7.00;2.50;;;;;;;36.04;25.50;99051.52;135941;1276;22628;-64
2023/07/14 13:58:01;;;;;;;5.90;2.20;;;;;;;35.62;25.67;99048.64;135910;1276;24230;-64
2023/07/14 14:01:03;;;;;;;6.00;2.20;;;;;;;35.49;26.52;99043.49;135885;1276;22596;-64
2023/07/14 14:04:08;;;;;;;8.80;2.20;;;;;;;35.51;25.75;99045.10;135896;1276;22540;-63
2023/07/14 14:07:10;;;;;;;11.70;2.40;;;;;;;35.58;26.52;99042.46;135932;1276;22524;-64
2023/07/14 14:10:12;;;;;;;9.80;2.30;;;;;;;36.06;25.70;99043.09;135915;1276;22527;-64
2023/07/14 14:13:15;;;;;;;8.50;2.40;;;;;;;35.78;26.43;99036.02;135951;1276;22536;-63
2023/07/14 14:16:17;;;;;;;12.20;2.60;;;;;;;35.61;26.10;99034.10;135930;1276;22544;-64
2023/07/14 14:19:20;;;;;;;7.30;2.10;;;;;;;35.55;27.14;99030.95;135901;1276;22547;-64
2023/07/14 14:22:22;;;;;;;7.60;2.30;;;;;;;35.81;25.83;99033.59;135873;1276;22546;-63
2023/07/14 14:25:25;;;;;;;9.70;2.80;;;;;;;35.84;26.11;99031.13;135877;1276;22640;-64
2023/07/14 14:28:28;;;;;;;10.80;2.40;;;;;;;36.03;26.22;99031.52;135924;1276;22576;-63
2023/07/14 14:31:31;;;;;;;7.20;2.60;;;;;;;35.94;25.51;99030.48;135912;1257;22520;-64
2023/07/14 14:34:34;;;;;;;9.70;2.20;;;;;;;36.06;25.88;99029.86;135913;1276;24173;-64
2023/07/14 14:37:36;;;;;;;11.20;2.50;;;;;;;36.52;25.14;99025.44;135915;1276;22527;-64
2023/07/14 14:40:39;;;;;;;9.30;2.40;;;;;;;36.58;25.70;99024.27;135937;1276;22538;-64
2023/07/14 14:43:41;;;;;;;10.90;2.40;;;;;;;36.51;25.20;99019.96;135919;1276;22539;-64
2023/07/14 14:46:43;;;;;;;10.20;2.80;;;;;;;35.81;26.41;99022.02;135885;1276;22531;-64
2023/07/14 14:49:46;;;;;;;6.30;2.30;;;;;;;35.87;25.72;99021.23;135933;1276;22547;-64
2023/07/14 14:52:48;;;;;;;10.90;2.40;;;;;;;35.83;25.91;99015.26;135949;1276;23313;-64
2023/07/14 14:55:50;;;;;;;9.40;2.40;;;;;;;35.78;26.37;99017.53;135924;1275;22550;-64
2023/07/14 14:58:53;;;;;;;8.30;2.40;;;;;;;35.86;26.17;99016.59;135941;1276;25648;-64
2023/07/14 15:01:55;;;;;;;9.10;2.50;;;;;;;36.04;26.68;99011.77;135932;1276;22528;-64
2023/07/14 15:04:58;;;;;;;9.30;2.20;;;;;;;36.27;26.23;99005.98;135916;1276;22639;-64
2023/07/14 15:08:00;;;;;;;10.40;2.80;;;;;;;36.75;26.36;99007.21;135926;1275;25458;-64
2023/07/14 15:11:04;;;;;;;8.50;2.40;;;;;;;37.39;24.79;99010.79;135911;1276;22581;-65
2023/07/14 15:14:06;;;;;;;6.10;2.40;;;;;;;38.28;25.07;99009.83;135913;1275;22531;-64
2023/07/14 15:17:09;;;;;;;6.40;2.10;;;;;;;39.25;24.79;99004.52;135894;1254;22543;-64
2023/07/14 15:20:11;;;;;;;8.60;2.10;;;;;;;40.42;23.02;99006.23;135927;1276;22521;-65